Smith Valley, Nevada Weather observations

Data are for 10 minute period ending at time listed.
 Day   Time   Solar   Ave.   Ave.  Ave.  Vector  Max.   Baro.   Total    
  of    of     Rad.   Air    Rel.  Wind   Wind   Wind  Press.  Precip.   
Year   Day            Temp.  Hum.  Speed  Dir.   Gust                    
2016   (PST)  Kw/m2    F      %     mph   deg.    mph    mb.     in.     
-------------------------------------------------------------------------
 268    6:50   0.13   43.1    55    0.9   159     2.4   862.3    0.00 
 268    7:00   0.16   44.9    51    2.7   276     3.5   862.2    0.00 
 268    7:10   0.20   45.3    50    1.1   262     3.1   862.3    0.00 
 268    7:20   0.22   47.2    46    0.5    48     2.3   862.4    0.00 
 268    7:30   0.25   48.8    44    1.3    84     2.9   862.4    0.00 
 268    7:40   0.28   50.3    42    1.3    93     2.5   862.4    0.00 
 268    7:50   0.31   52.7    38    0.7    79     1.8   862.4    0.00 
 268    8:00   0.34   54.5    37    0.8   126     2.5   862.3    0.00 
 268    8:10   0.37   55.3    38    0.9   296     2.1   862.1    0.00 
 268    8:20   0.40   56.8    37    0.9   287     2.5   862.1    0.00 
 268    8:30   0.43   57.8    34    0.2   251     1.4   862.1    0.00 
 268    8:40   0.46   59.1    35    0.9   275     3.4   862.1    0.00 
 268    8:50   0.49   59.5    35    0.8   283     3.2   862.0    0.00 
 268    9:00   0.51   59.4    37    1.2   314     2.3   862.0    0.00 
 268    9:10   0.54   59.8    38    2.1   265     4.6   862.1    0.00 
 268    9:20   0.56   61.0    36    2.2   233     4.0   862.3    0.00 
 268    9:30   0.59   61.4    38    2.2   247     4.4   862.3    0.00 
 268    9:40   0.61   61.9    39    2.3   216     5.7   862.4    0.00 
 268    9:50   0.63   62.7    40    1.5   331     3.8   862.5    0.00 
 268   10:00   0.65   63.3    37    2.9    42     7.2   862.5    0.00 
 268   10:10   0.67   63.6    36    2.0    94     4.8   862.6    0.00 
 268   10:20   0.68   62.9    39    3.8   329     8.8   862.7    0.00 
 268   10:30   0.69   62.9    38    4.1   358    13.4   862.6    0.00 
 268   10:40   0.71   64.2    38    3.3   330     7.9   862.6    0.00 
 268   10:50   0.72   63.9    36    3.8    36     7.8   862.6    0.00 
 268   11:00   0.73   64.0    36    4.1   352     7.4   862.6    0.00 
 268   11:10   0.74   64.5    35    2.0   220     4.9   862.6    0.00 
 268   11:20   0.75   65.3    34    2.7   309     7.7   862.6    0.00 
 268   11:30   0.75   65.8    35    1.9   245     5.1   862.5    0.00 
 268   11:40   0.76   67.8    33    1.5   318     5.5   862.4    0.00 
 268   11:50   0.78   67.5    30    3.7    81     6.6   862.4    0.00 
 268   12:00   0.76   67.6    28    3.1   107     6.6   862.4    0.00 
 268   12:10   0.77   68.1    25    2.8    50     6.6   862.4    0.00 
 268   12:20   0.77   68.7    25    3.0   328     7.4   862.4    0.00 
 268   12:30   0.76   69.6    23    3.8    84     8.1   862.3    0.00 
 268   12:40   0.75   70.1    17    5.5    21     9.6   862.2    0.00 
 268   12:50   0.74   69.8    20    2.7   318     7.2   862.2    0.00 
 268   13:00   0.73   70.1    21    5.1   339    11.5   862.2    0.00 
 268   13:10   0.72   70.2    21    5.5   349    11.8   862.1    0.00 
 268   13:20   0.71   70.9    22    6.1    14    11.8   862.0    0.00 
 268   13:30   0.68   71.4    20    6.4    24    11.0   861.9    0.00 
 268   13:40   0.67   71.9    20    6.5    18    10.9   861.9    0.00 
 268   13:50   0.65   72.1    20    5.5    12    10.7   861.9    0.00 
 268   14:00   0.63   72.6    20    3.4    65    10.2   861.9    0.00 
 268   14:10   0.63   72.8    20    3.4    53     8.0   861.8    0.00 
 268   14:20   0.61   72.3    20    5.6    13    11.9   861.8    0.00 
 268   14:30   0.58   73.2    17    5.7    43    10.4   861.8    0.00 
 268   14:40   0.55   74.0    17    6.9    39    11.8   861.8    0.00 
 268   14:50   0.53   73.5    17    5.0    48     9.6   861.8    0.00 
 268   15:00   0.50   73.7    16    4.9    54     8.9   861.7    0.00 
 268   15:10   0.48   73.4    16    5.2    60     9.1   861.7    0.00 
 268   15:20   0.45   73.1    16    6.1     9    12.6   861.7    0.00 
 268   15:30   0.42   72.8    17    6.5    11    11.1   861.7    0.00 
 268   15:40   0.39   72.9    19    5.6    14     9.6   861.7    0.00 
 268   15:50   0.36   72.4    20    5.6   358     8.9   861.8    0.00 
 268   16:00   0.33   73.0    19    5.7    10    12.5   861.8    0.00 
 268   16:10   0.30   72.8    19    4.3    31     7.5   861.8    0.00 
 268   16:20   0.27   73.0    19    6.5    28    12.0   861.8    0.00 
 268   16:30   0.24   72.5    20    6.8    19    11.5   861.8    0.00 
 268   16:40   0.21   72.1    20    7.0    33    11.2   861.8    0.00 
 268   16:50   0.18   71.8    20    6.7    34    10.9   861.8    0.00 
 268   17:00   0.15   71.5    20    5.0    34     9.9   861.8    0.00 
 268   17:10   0.12   71.3    20    5.0    36     7.7   861.8    0.00 
 268   17:20   0.05   70.4    20    4.6    37     9.2   861.9    0.00 
 268   17:30   0.01   68.7    21    4.2    31     6.8   861.9    0.00 
 268   17:40   0.01   67.5    22    4.1    31     6.6   862.0    0.00 
 268   17:50   0.01   66.5    23    3.3    25     5.5   862.1    0.00 
 268   18:00   0.00   65.8    23    3.0    23     4.5   862.1    0.00 
 268   18:10   0.00   64.3    24    2.3    25     3.3   862.1    0.00 
 268   18:20   0.00   62.5    26    2.7   312     3.9   862.2    0.00 
 268   18:30   0.00   61.5    28    3.0   296     4.1   862.2    0.00 
 268   18:40   0.00   60.7    28    2.3   286     4.1   862.3    0.00 
 268   18:50   0.00   58.6    30    3.7   296     4.5   862.4    0.00 
 268   19:00   0.00   59.9    28    2.2   311     4.2   862.5    0.00 
 268   19:10   0.00   59.5    28    1.8   260     2.6   862.7    0.00 
 268   19:20   0.00   56.2    32    1.6   237     3.2   862.9    0.00 
 268   19:30   0.00   54.1    34    1.7   235     3.3   863.0    0.00 
 268   19:40   0.00   53.7    34    2.1   274     3.8   863.2    0.00 
 268   19:50   0.00   53.7    36    3.1   261     4.2   863.2    0.00 
 268   20:00   0.00   53.2    35    1.6   256     2.9   863.2    0.00 
 268   20:10   0.00   53.9    33    2.0   240     2.9   863.3    0.00 
 268   20:20   0.00   53.2    35    1.2    16     4.3   863.4    0.00 
 268   20:30   0.00   54.9    32    1.6   340     3.1   863.5    0.00 
 268   20:40   0.00   54.8    33    1.6    11     3.8   863.6    0.00 
 268   20:50   0.00   52.9    38    2.4   178     6.7   863.7    0.00 
 268   21:00   0.00   49.7    45    3.6   174     5.7   863.7    0.00 
 268   21:10   0.00   47.9    53    1.9   194     3.5   863.8    0.00 
 268   21:20   0.00   47.2    52    1.8   168     3.4   863.8    0.00 
 268   21:30   0.00   48.4    49    1.7   170     2.7   863.9    0.00 
 268   21:40   0.00   48.9    48    3.2   188     4.2   863.9    0.00 
 268   21:50   0.00   47.5    52    2.7   108     4.2   863.9    0.00 
 268   22:00   0.00   45.7    54    1.7    76     4.2   864.0    0.00 
 268   22:10   0.00   45.8    52    1.6   105     3.2   863.9    0.00 
 268   22:20   0.00   46.2    48    2.3   113     4.2   864.1    0.00 
 268   22:30   0.00   46.2    49    1.9    98     3.7   864.1    0.00 
 268   22:40   0.00   46.5    46    3.1   187     4.1   864.1    0.00 
 268   22:50   0.00   45.0    50    3.1   180     4.5   864.1    0.00 
 268   23:00   0.00   45.0    51    0.9   177     2.0   864.1    0.00 
 268   23:10   0.00   44.2    54    1.0   150     2.3   864.1    0.00 
 268   23:20   0.00   44.0    55    0.9   147     2.1   864.2    0.00 
 268   23:30   0.00   43.3    54    1.2    41     3.1   864.2    0.00 
 268   23:40   0.00   42.6    55    1.2    71     3.1   864.2    0.00 
 268   23:50   0.00   42.8    52    1.8    40     2.9   864.1    0.00 
 269    0:00   0.00   41.5    54    1.2   183     2.5   864.2    0.00 
 269    0:10   0.00   41.4    52    2.4   132     4.4   864.2    0.00 
 269    0:20   0.00   43.0    53    3.6   123     6.1   864.3    0.00 
 269    0:30   0.00   42.7    56    2.0   124     3.9   864.4    0.00 
 269    0:40   0.00   41.6    54    2.6   193     4.5   864.5    0.00 
 269    0:50   0.00   40.0    58    2.8   204     4.0   864.6    0.00 
 269    1:00   0.00   40.6    64    2.2   158     3.5   864.7    0.00 
 269    1:10   0.00   40.8    62    2.8    66     4.0   864.8    0.00 
 269    1:20   0.00   39.6    69    2.2   109     3.4   864.8    0.00 
 269    1:30   0.00   39.9    64    3.1   107     4.7   864.9    0.00 
 269    1:40   0.00   40.6    61    2.4   115     3.7   865.0    0.00 
 269    1:50   0.00   41.2    59    0.8   112     2.1   865.0    0.00 
 269    2:00   0.00   39.3    60    1.1   264     2.6   865.1    0.00 
 269    2:10   0.00   37.9    62    0.7   249     1.2   865.0    0.00 
 269    2:20   0.00   38.6    60    0.9   311     2.5   864.9    0.00 
 269    2:30   0.00   37.5    61    1.8   259     3.0   864.9    0.00 
 269    2:40   0.00   37.1    63    0.3    34     1.5   864.9    0.00 
 269    2:50   0.00   39.2    58    1.0    16     2.2   864.9    0.00 
 269    3:00   0.00   37.2    59    2.3   212     3.2   865.0    0.00 
 269    3:10   0.00   37.0    57    2.5   229     3.4   865.0    0.00 
 269    3:20   0.00   36.5    61    2.6   252     3.4   865.0    0.00 
 269    3:30   0.00   36.7    62    0.4   298     1.5   864.9    0.00 
 269    3:40   0.00   38.3    62    0.4   148     1.9   864.9    0.00 
 269    3:50   0.00   40.2    64    1.9   147     2.5   865.0    0.00 
 269    4:00   0.00   38.2    64    2.0   149     3.1   865.2    0.00 
 269    4:10   0.00   36.6    66    1.7   146     3.7   865.2    0.00 
 269    4:20   0.00   35.4    66    2.1   204     3.7   865.3    0.00 
 269    4:30   0.00   35.2    69    1.8   165     2.8   865.3    0.00 
 269    4:40   0.00   36.8    68    2.0   153     2.8   865.3    0.00 
 269    4:50   0.00   36.5    68    2.7   120     4.1   865.3    0.00 
 269    5:00   0.00   36.3    65    1.4   172     2.7   865.3    0.00 
 269    5:10   0.00   36.4    66    1.2   168     3.7   865.3    0.00 
 269    5:20   0.00   34.5    69    0.2   227     1.7   865.3    0.00 
 269    5:30   0.00   34.9    67    1.1   128     2.6   865.4    0.00 
 269    5:40   0.00   35.5    64    1.2   138     3.3   865.6    0.00 
 269    5:50   0.00   34.8    64    1.9   247     4.7   865.6    0.00 
 269    6:00   0.01   33.0    68    3.2   287     4.6   865.7    0.00 
 269    6:10   0.02   33.9    71    2.3   264     4.4   865.8    0.00 
 269    6:20   0.05   35.3    66    0.6   170     1.4   865.9    0.00 
 269    6:30   0.08   37.8    62    1.5    60     2.4   866.0    0.00 
 269    6:40   0.10   41.0    57    0.4    64     1.6   866.2    0.00 

Return to Smith Valley graphs page.


Western Regional Climate Center,wrcc@dri.edu